Main page
METAR-TAF:

METAR-TAF

Airports :

Benbecula Airport

Benbecula, Scotland

latitude: 57-28N, longitude: 007-22W, elevation: 6 m

Current weather observation

The report was made 25 minutes ago, at 15:20 UTC
Wind 27 kt from the West
Temperature 10°C
Humidity 71%
Pressure 1024 hPa
Visibility 10 km or more
Few clouds at a height of 1200 ft
Scattered clouds at a height of 2400 ft
showers in vicinity

METAR: EGPL 211520Z 28027KT 9999 VCSH FEW012 SCT024 10/05 Q1024

Time: 16:45 (15:45 UTC)

Forecast

The report was made 1 hour and 48 minutes ago, at 13:57 UTC
Forecast valid from 21 at 15 UTC to 21 at 18 UTC
Wind 20 kt from the West
Visibility 10 km or more
Scattered clouds at a height of 2500 ft
Temporary
from 21 at 15 UTC to 21 at 18 UTC
Wind 25 kt from the West with gusts up to 35 kt
Probability 40% :
Temporary
from 21 at 15 UTC to 21 at 18 UTC
Visibility: 6000 m
Broken clouds at a height of 1200 ft
rain showers

TAF: EGPL 211357Z 2115/2118 28020KT 9999 SCT025 TEMPO 2115/2118 27025G35KT PROB40 TEMPO 2115/2118 6000 SHRA BKN012

Weather observations and forecasts of more than 4000 airports (METAR and TAF reports).

The available stations are represented by yellow and red dots on the map.

Hover mouse over dot to see the name of the station.

Then click to see weather observations and forecasts.

To change the map : click on the green buttons with a black cross to zoom in, on the green button with a dash to zoom out, or on the green arrows for adjacent maps.


METAR-TAF: